Terminal Aerodrome Forecast
Issued by NWS

Home | Current Version | Previous Version | Text Only | Print | Product List | Glossary On
Versions: 1 2 3 4 5 6 7 8 9 10 11 12 13 14 15 16 17 18 19 20
000
FTUS44 KLZK 281000 AAB
TAFHRO
TAF AMD
KHRO 281004Z 2810/2906 14005KT 3SM BR SCT005 BKN250
      TEMPO 2810/2813 1/2SM FG VV002
     FM281300 14004KT 4SM BR SCT005 BKN250
      TEMPO 2813/2814 1SM BR BKN002
     FM281500 15007KT P6SM FEW035 SCT100 BKN250
     FM281800 15009KT P6SM VCTS SCT030CB SCT100 BKN250=

USA.gov is the U.S. government's official web portal to all federal, state and local government web resources and services.